Aeroporto :
LOGIN :

Iscrizione | Disclaimer

   EN    FR    IT 

 










Sommario :    VFR   VFR Marginale   IFR   IFR Intensivo   IFR Molto Intensivo
Visibilità : 
Base nubi : 
>= 8 km
>= 3000ft
5 / 8 km
1000 / 3000 ft
1500m / 5 km
500 / 1000 ft
800 / 1500m
200 / 500 ft
< 800m
< 200 ft
Simboli :   Temporali  Nebbia  Neve Forte  Precipitazioni Forti  Vento > 20 kt
SIGMETs :   Varie  Temporali  Ghiacco  Turbolenza  Onda orograficha  Ceneri Vulcaniche






- Altitudine del aeroporto : 239 ft
- Codice IATA : VRN


LIPX - Villafranca Int. Verona

ULTIMO METAR :
  • 121320Z 22003KT 5000 -DZ BR SCT020 BKN040 11/09 Q0999

METARs OBSOLETI :
  • 121250Z 26002KT 7000 -DZ SCT020 BKN040 11/09 Q0999
  • 121220Z 27004KT 250V310 7000 -DZ SCT020 BKN040 11/09 Q1000
  • 121150Z 24003KT 200V280 5000 -DZ BR SCT015 BKN040 11/07 Q1001
  • 121120Z 21005KT 9999 SCT030 BKN060 11/08 Q1001
  • 121050Z 21005KT 9999 SCT025 BKN050 10/09 Q1002

TAF TAF LIPX
Valido dal 12 a 12 ore il 12 a 21 ore UTC


121100Z 1212/1221 27006KT 5000 RA SCT025 BKN050



MetMap, La meteo Aeronautica in un colpo d'occhio ! - Copyright ORBIFLY Dicembre 2007 - Disclaimer

ORBIFLY MET'MAP TEAM :

Programmazione e sviluppo : Alexandra Zaïnal
Concezione e sviluppo : Baudouin d'Aumeries
Co-Programmazione e sviluppo : Marc-Olivier Méhu
Supporto tecnico e logistico : Manuel Goepfert
Aiuto per la traduzione : Arnaldo La Scala

Contatto : metmap@orbifly.com




FONTI E CREDITI :

   NOAA